sensor_id;sensor_type;location;lat;lon;timestamp;pressure;altitude;pressure_sealevel;temperature;humidity
35694;BME280;21812;55.536;37.664;2022-11-15T00:00:09;100408.25;;;1.72;45.25
35694;BME280;21812;55.536;37.664;2022-11-15T00:02:54;100411.72;;;1.73;45.28
35694;BME280;21812;55.536;37.664;2022-11-15T00:05:38;100411.41;;;1.89;45.20
35694;BME280;21812;55.536;37.664;2022-11-15T00:08:22;100396.06;;;1.71;44.69
35694;BME280;21812;55.536;37.664;2022-11-15T00:11:06;100403.69;;;1.63;44.84
35694;BME280;21812;55.536;37.664;2022-11-15T00:13:50;100401.81;;;1.76;45.26
35694;BME280;21812;55.536;37.664;2022-11-15T00:16:34;100404.91;;;1.70;44.71
35694;BME280;21812;55.536;37.664;2022-11-15T00:19:18;100403.97;;;1.83;44.36
35694;BME280;21812;55.536;37.664;2022-11-15T00:22:02;100390.19;;;1.68;44.73
35694;BME280;21812;55.536;37.664;2022-11-15T00:24:46;100399.06;;;1.78;44.60
35694;BME280;21812;55.536;37.664;2022-11-15T00:27:30;100395.63;;;1.89;44.43
35694;BME280;21812;55.536;37.664;2022-11-15T00:30:14;100390.91;;;1.70;44.17
35694;BME280;21812;55.536;37.664;2022-11-15T00:33:02;100396.66;;;1.75;44.24
35694;BME280;21812;55.536;37.664;2022-11-15T00:35:47;100393.13;;;1.52;44.63
35694;BME280;21812;55.536;37.664;2022-11-15T00:38:32;100384.16;;;1.43;44.96
35694;BME280;21812;55.536;37.664;2022-11-15T00:41:17;100393.25;;;1.50;45.38
35694;BME280;21812;55.536;37.664;2022-11-15T00:44:01;100377.03;;;1.68;45.23
35694;BME280;21812;55.536;37.664;2022-11-15T00:46:46;100368.63;;;1.63;45.56
35694;BME280;21812;55.536;37.664;2022-11-15T00:49:30;100374.41;;;1.79;44.92
35694;BME280;21812;55.536;37.664;2022-11-15T00:52:14;100371.97;;;1.65;45.17
35694;BME280;21812;55.536;37.664;2022-11-15T00:54:58;100365.88;;;1.64;45.54
35694;BME280;21812;55.536;37.664;2022-11-15T00:57:42;100365.16;;;1.62;45.18
35694;BME280;21812;55.536;37.664;2022-11-15T01:00:26;100361.69;;;1.73;45.25
35694;BME280;21812;55.536;37.664;2022-11-15T01:03:11;100361.34;;;1.66;45.26
35694;BME280;21812;55.536;37.664;2022-11-15T01:05:59;100349.47;;;1.61;45.36
35694;BME280;21812;55.536;37.664;2022-11-15T01:08:42;100358.94;;;1.63;45.54
35694;BME280;21812;55.536;37.664;2022-11-15T01:11:26;100356.94;;;1.78;45.43
35694;BME280;21812;55.536;37.664;2022-11-15T01:14:10;100345.66;;;1.65;45.00
35694;BME280;21812;55.536;37.664;2022-11-15T01:16:54;100358.47;;;1.69;45.38
35694;BME280;21812;55.536;37.664;2022-11-15T01:19:38;100352.44;;;1.56;45.13
35694;BME280;21812;55.536;37.664;2022-11-15T01:22:22;100357.13;;;1.64;45.22
35694;BME280;21812;55.536;37.664;2022-11-15T01:25:06;100347.91;;;1.47;45.37
35694;BME280;21812;55.536;37.664;2022-11-15T01:27:50;100354.97;;;1.58;45.08
35694;BME280;21812;55.536;37.664;2022-11-15T01:30:35;100345.38;;;1.45;45.48
35694;BME280;21812;55.536;37.664;2022-11-15T01:33:20;100342.38;;;1.39;45.78
35694;BME280;21812;55.536;37.664;2022-11-15T01:36:09;100336.66;;;1.56;45.54
35694;BME280;21812;55.536;37.664;2022-11-15T01:38:55;100338.91;;;1.38;45.76
35694;BME280;21812;55.536;37.664;2022-11-15T01:41:39;100332.78;;;1.26;45.97
35694;BME280;21812;55.536;37.664;2022-11-15T01:44:38;100322.53;;;1.46;45.92
35694;BME280;21812;55.536;37.664;2022-11-15T01:47:30;100325.75;;;1.38;45.54
35694;BME280;21812;55.536;37.664;2022-11-15T01:50:19;100332.41;;;1.31;45.85
35694;BME280;21812;55.536;37.664;2022-11-15T01:53:04;100327.75;;;1.34;45.54
35694;BME280;21812;55.536;37.664;2022-11-15T01:55:49;100333.38;;;1.30;45.53
35694;BME280;21812;55.536;37.664;2022-11-15T01:58:34;100333.09;;;1.22;46.06
35694;BME280;21812;55.536;37.664;2022-11-15T02:01:19;100342.75;;;1.10;46.05
35694;BME280;21812;55.536;37.664;2022-11-15T02:04:16;100337.16;;;1.14;46.14
35694;BME280;21812;55.536;37.664;2022-11-15T02:07:03;100334.59;;;1.02;45.95
35694;BME280;21812;55.536;37.664;2022-11-15T02:09:49;100335.47;;;1.13;46.04
35694;BME280;21812;55.536;37.664;2022-11-15T02:12:35;100332.59;;;1.05;46.02
35694;BME280;21812;55.536;37.664;2022-11-15T02:15:19;100338.69;;;1.06;46.01
35694;BME280;21812;55.536;37.664;2022-11-15T02:18:18;100335.09;;;1.07;46.25
35694;BME280;21812;55.536;37.664;2022-11-15T02:24:40;100296.56;;;0.70;46.72
35694;BME280;21812;55.536;37.664;2022-11-15T02:34:16;100315.63;;;1.09;46.88
35694;BME280;21812;55.536;37.664;2022-11-15T02:37:11;100314.03;;;0.95;47.43
35694;BME280;21812;55.536;37.664;2022-11-15T02:40:07;100303.34;;;0.86;47.60
35694;BME280;21812;55.536;37.664;2022-11-15T02:42:57;100301.16;;;0.80;47.73
35694;BME280;21812;55.536;37.664;2022-11-15T02:49:06;100306.16;;;0.71;48.23
35694;BME280;21812;55.536;37.664;2022-11-15T02:51:51;100313.81;;;0.74;48.24
35694;BME280;21812;55.536;37.664;2022-11-15T02:54:36;100316.09;;;0.79;48.06
35694;BME280;21812;55.536;37.664;2022-11-15T02:57:22;100318.88;;;0.89;47.94
35694;BME280;21812;55.536;37.664;2022-11-15T03:00:34;100245.47;;;0.50;48.06
35694;BME280;21812;55.536;37.664;2022-11-15T03:12:39;100303.72;;;0.92;48.62
35694;BME280;21812;55.536;37.664;2022-11-15T03:15:27;100291.88;;;0.87;48.24
35694;BME280;21812;55.536;37.664;2022-11-15T03:18:19;100293.78;;;0.85;48.46
35694;BME280;21812;55.536;37.664;2022-11-15T03:21:08;100262.13;;;0.62;48.21
35694;BME280;21812;55.536;37.664;2022-11-15T03:23:54;100289.34;;;0.85;48.02
35694;BME280;21812;55.536;37.664;2022-11-15T03:26:41;100252.53;;;0.50;48.60
35694;BME280;21812;55.536;37.664;2022-11-15T03:29:32;100251.34;;;0.54;48.57
35694;BME280;21812;55.536;37.664;2022-11-15T03:32:30;100269.59;;;0.80;48.44
35694;BME280;21812;55.536;37.664;2022-11-15T03:35:19;100236.97;;;0.71;47.89
35694;BME280;21812;55.536;37.664;2022-11-15T03:38:23;100279.13;;;1.05;47.60
35694;BME280;21812;55.536;37.664;2022-11-15T03:41:15;100278.28;;;1.04;47.04
35694;BME280;21812;55.536;37.664;2022-11-15T03:44:20;100285.47;;;1.02;46.93
35694;BME280;21812;55.536;37.664;2022-11-15T03:47:12;100284.34;;;0.82;47.17
35694;BME280;21812;55.536;37.664;2022-11-15T03:50:04;100285.16;;;0.83;47.86
35694;BME280;21812;55.536;37.664;2022-11-15T03:52:51;100285.16;;;0.83;47.26
35694;BME280;21812;55.536;37.664;2022-11-15T03:55:38;100293.03;;;0.83;47.38
35694;BME280;21812;55.536;37.664;2022-11-15T03:58:22;100291.81;;;0.75;47.01
35694;BME280;21812;55.536;37.664;2022-11-15T04:01:06;100285.22;;;0.94;47.59
35694;BME280;21812;55.536;37.664;2022-11-15T04:03:50;100284.84;;;0.98;46.90
35694;BME280;21812;55.536;37.664;2022-11-15T04:06:35;100286.16;;;0.93;46.81
35694;BME280;21812;55.536;37.664;2022-11-15T04:09:19;100285.94;;;0.96;47.22
35694;BME280;21812;55.536;37.664;2022-11-15T04:12:03;100279.78;;;0.84;47.04
35694;BME280;21812;55.536;37.664;2022-11-15T04:14:47;100284.03;;;0.98;46.85
35694;BME280;21812;55.536;37.664;2022-11-15T04:17:56;100284.94;;;0.86;47.02
35694;BME280;21812;55.536;37.664;2022-11-15T04:20:40;100281.66;;;0.71;46.79
35694;BME280;21812;55.536;37.664;2022-11-15T04:23:43;100274.66;;;0.83;47.52
35694;BME280;21812;55.536;37.664;2022-11-15T04:26:37;100276.19;;;0.85;47.79
35694;BME280;21812;55.536;37.664;2022-11-15T04:29:21;100272.28;;;0.91;47.43
35694;BME280;21812;55.536;37.664;2022-11-15T04:32:18;100270.63;;;0.90;47.01
35694;BME280;21812;55.536;37.664;2022-11-15T04:35:02;100273.38;;;1.00;46.60
35694;BME280;21812;55.536;37.664;2022-11-15T04:37:46;100268.75;;;1.03;46.44
35694;BME280;21812;55.536;37.664;2022-11-15T04:40:31;100269.47;;;1.05;45.99
35694;BME280;21812;55.536;37.664;2022-11-15T04:43:15;100269.22;;;1.08;46.28
35694;BME280;21812;55.536;37.664;2022-11-15T04:45:59;100261.47;;;1.07;45.60
35694;BME280;21812;55.536;37.664;2022-11-15T04:48:43;100257.63;;;1.11;45.59
35694;BME280;21812;55.536;37.664;2022-11-15T04:51:27;100253.13;;;1.24;45.55
35694;BME280;21812;55.536;37.664;2022-11-15T04:54:11;100248.16;;;1.08;45.87
35694;BME280;21812;55.536;37.664;2022-11-15T04:56:55;100255.13;;;1.09;45.51
35694;BME280;21812;55.536;37.664;2022-11-15T04:59:39;100247.81;;;1.02;46.07
35694;BME280;21812;55.536;37.664;2022-11-15T05:02:23;100235.28;;;1.16;45.64
35694;BME280;21812;55.536;37.664;2022-11-15T05:05:08;100244.34;;;1.01;46.55
35694;BME280;21812;55.536;37.664;2022-11-15T05:07:52;100240.50;;;0.94;46.37
35694;BME280;21812;55.536;37.664;2022-11-15T05:10:36;100246.94;;;0.90;46.85
35694;BME280;21812;55.536;37.664;2022-11-15T05:13:20;100238.38;;;0.99;46.81
35694;BME280;21812;55.536;37.664;2022-11-15T05:16:04;100246.47;;;0.96;47.05
35694;BME280;21812;55.536;37.664;2022-11-15T05:18:52;100244.13;;;1.15;46.74
35694;BME280;21812;55.536;37.664;2022-11-15T05:21:36;100245.66;;;0.95;47.18
35694;BME280;21812;55.536;37.664;2022-11-15T05:24:20;100233.41;;;0.83;47.44
35694;BME280;21812;55.536;37.664;2022-11-15T05:27:05;100240.72;;;0.91;47.71
35694;BME280;21812;55.536;37.664;2022-11-15T05:29:49;100241.00;;;0.99;47.10
35694;BME280;21812;55.536;37.664;2022-11-15T05:32:33;100239.06;;;0.90;47.76
35694;BME280;21812;55.536;37.664;2022-11-15T05:35:34;100246.25;;;0.99;47.57
35694;BME280;21812;55.536;37.664;2022-11-15T05:38:21;100242.88;;;0.86;47.82
35694;BME280;21812;55.536;37.664;2022-11-15T05:41:05;100242.41;;;0.92;47.98
35694;BME280;21812;55.536;37.664;2022-11-15T05:43:49;100243.38;;;1.02;47.50
35694;BME280;21812;55.536;37.664;2022-11-15T05:46:35;100210.78;;;0.69;47.58
35694;BME280;21812;55.536;37.664;2022-11-15T05:49:24;100195.22;;;0.66;48.00
35694;BME280;21812;55.536;37.664;2022-11-15T05:52:14;100226.63;;;0.92;47.70
35694;BME280;21812;55.536;37.664;2022-11-15T05:55:01;100215.16;;;1.04;47.52
35694;BME280;21812;55.536;37.664;2022-11-15T05:57:48;100214.59;;;1.23;47.38
35694;BME280;21812;55.536;37.664;2022-11-15T06:00:32;100218.06;;;1.35;46.98
35694;BME280;21812;55.536;37.664;2022-11-15T06:03:17;100215.69;;;1.21;47.62
35694;BME280;21812;55.536;37.664;2022-11-15T06:06:01;100208.41;;;1.35;47.17
35694;BME280;21812;55.536;37.664;2022-11-15T06:08:45;100209.47;;;1.33;47.12
35694;BME280;21812;55.536;37.664;2022-11-15T06:11:29;100209.22;;;1.25;47.00
35694;BME280;21812;55.536;37.664;2022-11-15T06:14:13;100204.69;;;1.27;47.66
35694;BME280;21812;55.536;37.664;2022-11-15T06:16:57;100206.38;;;1.28;47.10
35694;BME280;21812;55.536;37.664;2022-11-15T06:19:41;100210.91;;;1.14;47.19
35694;BME280;21812;55.536;37.664;2022-11-15T06:22:29;100204.69;;;1.27;46.96
35694;BME280;21812;55.536;37.664;2022-11-15T06:25:13;100206.38;;;1.28;47.02
35694;BME280;21812;55.536;37.664;2022-11-15T06:27:58;100207.56;;;1.12;47.30
35694;BME280;21812;55.536;37.664;2022-11-15T06:30:43;100203.94;;;1.13;47.22
35694;BME280;21812;55.536;37.664;2022-11-15T06:33:27;100207.53;;;1.35;46.71
35694;BME280;21812;55.536;37.664;2022-11-15T06:36:12;100139.00;;;0.80;46.85
35694;BME280;21812;55.536;37.664;2022-11-15T06:39:01;100195.56;;;1.20;46.98
35694;BME280;21812;55.536;37.664;2022-11-15T06:41:47;100190.19;;;1.21;47.43
35694;BME280;21812;55.536;37.664;2022-11-15T06:44:31;100187.97;;;1.39;47.06
35694;BME280;21812;55.536;37.664;2022-11-15T06:47:16;100190.31;;;1.31;46.98
35694;BME280;21812;55.536;37.664;2022-11-15T06:50:00;100190.34;;;1.42;46.85
35694;BME280;21812;55.536;37.664;2022-11-15T06:52:44;100183.41;;;1.30;47.38
35694;BME280;21812;55.536;37.664;2022-11-15T06:55:29;100190.31;;;1.08;47.93
35694;BME280;21812;55.536;37.664;2022-11-15T06:58:13;100174.53;;;1.08;48.06
35694;BME280;21812;55.536;37.664;2022-11-15T07:01:07;100180.50;;;1.22;47.94
35694;BME280;21812;55.536;37.664;2022-11-15T07:03:51;100177.53;;;1.15;47.99
35694;BME280;21812;55.536;37.664;2022-11-15T07:06:35;100173.81;;;1.40;47.85
35694;BME280;21812;55.536;37.664;2022-11-15T07:09:19;100164.72;;;1.44;47.35
35694;BME280;21812;55.536;37.664;2022-11-15T07:12:04;100171.78;;;1.55;46.76
35694;BME280;21812;55.536;37.664;2022-11-15T07:14:48;100168.78;;;1.48;46.46
35694;BME280;21812;55.536;37.664;2022-11-15T07:17:32;100165.94;;;1.51;46.94
35694;BME280;21812;55.536;37.664;2022-11-15T07:20:16;100159.97;;;1.38;47.60
35694;BME280;21812;55.536;37.664;2022-11-15T07:23:04;100158.63;;;1.44;47.14
35694;BME280;21812;55.536;37.664;2022-11-15T07:25:49;100157.81;;;1.54;46.95
35694;BME280;21812;55.536;37.664;2022-11-15T07:28:34;100154.47;;;1.52;46.53
35694;BME280;21812;55.536;37.664;2022-11-15T07:31:18;100152.16;;;1.59;47.20
35694;BME280;21812;55.536;37.664;2022-11-15T07:34:02;100154.41;;;1.75;46.28
35694;BME280;21812;55.536;37.664;2022-11-15T07:36:46;100162.09;;;1.55;46.98
35694;BME280;21812;55.536;37.664;2022-11-15T07:39:31;100146.41;;;1.65;46.88
35694;BME280;21812;55.536;37.664;2022-11-15T07:42:15;100149.91;;;1.54;47.12
35694;BME280;21812;55.536;37.664;2022-11-15T07:45:23;100142.94;;;1.53;46.96
35694;BME280;21812;55.536;37.664;2022-11-15T07:48:09;100142.63;;;1.47;47.08
35694;BME280;21812;55.536;37.664;2022-11-15T07:50:54;100142.34;;;1.50;47.28
35694;BME280;21812;55.536;37.664;2022-11-15T07:53:38;100122.72;;;1.54;46.76
35694;BME280;21812;55.536;37.664;2022-11-15T07:56:22;100125.44;;;1.75;46.92
35694;BME280;21812;55.536;37.664;2022-11-15T07:59:06;100124.50;;;1.65;47.05
35694;BME280;21812;55.536;37.664;2022-11-15T08:01:50;100125.56;;;1.85;46.46
35694;BME280;21812;55.536;37.664;2022-11-15T08:04:34;100117.56;;;1.64;47.21
35694;BME280;21812;55.536;37.664;2022-11-15T08:07:18;100118.16;;;1.67;46.58
35694;BME280;21812;55.536;37.664;2022-11-15T08:10:02;100106.34;;;1.50;47.67
35694;BME280;21812;55.536;37.664;2022-11-15T08:12:47;100110.16;;;1.46;47.46
35694;BME280;21812;55.536;37.664;2022-11-15T08:15:32;100109.47;;;1.33;48.23
35694;BME280;21812;55.536;37.664;2022-11-15T08:18:19;100102.28;;;1.35;48.46
35694;BME280;21812;55.536;37.664;2022-11-15T08:21:04;100101.44;;;1.46;48.29
35694;BME280;21812;55.536;37.664;2022-11-15T08:23:48;100105.13;;;1.66;47.47
35694;BME280;21812;55.536;37.664;2022-11-15T08:26:32;100099.91;;;1.43;47.07
35694;BME280;21812;55.536;37.664;2022-11-15T08:29:19;100100.84;;;1.53;47.36
35694;BME280;21812;55.536;37.664;2022-11-15T08:32:03;100104.91;;;1.46;47.39
35694;BME280;21812;55.536;37.664;2022-11-15T08:34:48;100098.47;;;1.39;47.48
35694;BME280;21812;55.536;37.664;2022-11-15T08:37:32;100097.28;;;1.43;47.77
35694;BME280;21812;55.536;37.664;2022-11-15T08:40:16;100091.31;;;1.41;47.85
35694;BME280;21812;55.536;37.664;2022-11-15T08:43:02;100084.94;;;1.44;49.14
35694;BME280;21812;55.536;37.664;2022-11-15T08:45:47;100081.94;;;1.37;48.80
35694;BME280;21812;55.536;37.664;2022-11-15T08:48:33;100082.44;;;1.31;48.54
35694;BME280;21812;55.536;37.664;2022-11-15T08:51:18;100074.19;;;1.47;47.98
35694;BME280;21812;55.536;37.664;2022-11-15T08:54:02;100076.03;;;1.67;47.49
35694;BME280;21812;55.536;37.664;2022-11-15T08:56:46;100068.16;;;1.56;47.91
35694;BME280;21812;55.536;37.664;2022-11-15T08:59:32;100070.41;;;1.72;48.13
35694;BME280;21812;55.536;37.664;2022-11-15T09:02:16;100066.31;;;1.79;47.71
35694;BME280;21812;55.536;37.664;2022-11-15T09:05:00;100069.16;;;1.87;47.47
35694;BME280;21812;55.536;37.664;2022-11-15T09:07:44;100063.34;;;2.05;47.05
35694;BME280;21812;55.536;37.664;2022-11-15T09:10:28;100061.56;;;1.94;47.67
35694;BME280;21812;55.536;37.664;2022-11-15T09:13:13;100064.16;;;2.05;47.78
35694;BME280;21812;55.536;37.664;2022-11-15T09:15:59;100052.06;;;1.82;47.81
35694;BME280;21812;55.536;37.664;2022-11-15T09:18:43;100054.53;;;1.62;48.46
35694;BME280;21812;55.536;37.664;2022-11-15T09:21:28;100057.06;;;1.52;49.16
35694;BME280;21812;55.536;37.664;2022-11-15T09:24:13;100066.13;;;1.48;48.84
35694;BME280;21812;55.536;37.664;2022-11-15T09:26:57;100051.97;;;1.72;48.88
35694;BME280;21812;55.536;37.664;2022-11-15T09:29:41;100042.13;;;1.85;48.70
35694;BME280;21812;55.536;37.664;2022-11-15T09:32:28;100031.72;;;2.05;48.56
35694;BME280;21812;55.536;37.664;2022-11-15T09:35:12;100031.19;;;1.90;47.63
35694;BME280;21812;55.536;37.664;2022-11-15T09:37:57;100030.44;;;1.67;48.48
35694;BME280;21812;55.536;37.664;2022-11-15T09:40:42;100032.75;;;1.60;48.55
35694;BME280;21812;55.536;37.664;2022-11-15T09:43:34;100027.88;;;1.76;48.37
35694;BME280;21812;55.536;37.664;2022-11-15T09:49:26;100014.47;;;1.80;48.37
35694;BME280;21812;55.536;37.664;2022-11-15T09:52:14;100021.69;;;1.78;48.42
35694;BME280;21812;55.536;37.664;2022-11-15T09:54:43;100018.53;;;1.84;47.99
35694;BME280;21812;55.536;37.664;2022-11-15T09:57:16;100015.25;;;1.91;47.84
35694;BME280;21812;55.536;37.664;2022-11-15T10:04:56;100012.34;;;2.06;48.00
35694;BME280;21812;55.536;37.664;2022-11-15T10:12:53;99996.38;;;1.86;48.04
35694;BME280;21812;55.536;37.664;2022-11-15T10:15:19;100000.22;;;1.82;48.49
35694;BME280;21812;55.536;37.664;2022-11-15T10:18:15;99981.06;;;1.80;47.69
35694;BME280;21812;55.536;37.664;2022-11-15T10:20:54;99998.16;;;1.65;49.37
35694;BME280;21812;55.536;37.664;2022-11-15T10:23:22;99997.56;;;1.61;49.00
35694;BME280;21812;55.536;37.664;2022-11-15T10:25:52;99990.00;;;1.68;48.92
35694;BME280;21812;55.536;37.664;2022-11-15T10:28:26;99956.84;;;1.65;48.97
35694;BME280;21812;55.536;37.664;2022-11-15T10:30:54;99953.28;;;1.66;49.13
35694;BME280;21812;55.536;37.664;2022-11-15T10:46:28;99955.56;;;1.81;48.41
35694;BME280;21812;55.536;37.664;2022-11-15T10:49:20;99927.47;;;1.60;48.98
35694;BME280;21812;55.536;37.664;2022-11-15T10:54:43;99948.63;;;1.59;49.28
35694;BME280;21812;55.536;37.664;2022-11-15T10:59:39;99936.00;;;1.73;48.91
35694;BME280;21812;55.536;37.664;2022-11-15T11:02:40;99937.72;;;1.84;49.48
35694;BME280;21812;55.536;37.664;2022-11-15T11:05:32;99939.06;;;2.00;48.81
35694;BME280;21812;55.536;37.664;2022-11-15T11:08:23;99927.75;;;2.09;48.23
35694;BME280;21812;55.536;37.664;2022-11-15T11:10:56;99926.94;;;2.08;48.46
35694;BME280;21812;55.536;37.664;2022-11-15T11:16:05;99894.63;;;1.85;48.72
35694;BME280;21812;55.536;37.664;2022-11-15T11:18:38;99880.38;;;1.67;48.85
35694;BME280;21812;55.536;37.664;2022-11-15T11:21:15;99908.97;;;1.71;49.06
35694;BME280;21812;55.536;37.664;2022-11-15T11:24:03;99919.63;;;1.70;49.61
35694;BME280;21812;55.536;37.664;2022-11-15T11:27:08;99913.91;;;1.65;49.43
35694;BME280;21812;55.536;37.664;2022-11-15T11:35:29;99917.19;;;1.78;50.01
35694;BME280;21812;55.536;37.664;2022-11-15T11:38:19;99883.25;;;1.64;49.60
35694;BME280;21812;55.536;37.664;2022-11-15T11:40:54;99919.34;;;1.73;49.67
35694;BME280;21812;55.536;37.664;2022-11-15T11:49:01;99913.38;;;1.50;50.09
35694;BME280;21812;55.536;37.664;2022-11-15T11:51:34;99892.13;;;1.42;50.02
35694;BME280;21812;55.536;37.664;2022-11-15T11:54:29;99871.44;;;1.37;51.08
35694;BME280;21812;55.536;37.664;2022-11-15T11:56:58;99904.91;;;1.46;50.70
35694;BME280;21812;55.536;37.664;2022-11-15T12:00:12;99902.06;;;1.38;51.59
35694;BME280;21812;55.536;37.664;2022-11-15T12:02:18;99892.66;;;1.35;51.64
35694;BME280;21812;55.536;37.664;2022-11-15T12:04:51;99896.41;;;1.43;52.24
35694;BME280;21812;55.536;37.664;2022-11-15T12:07:26;99862.66;;;1.27;52.27
35694;BME280;21812;55.536;37.664;2022-11-15T12:10:28;99872.66;;;1.33;53.05
35694;BME280;21812;55.536;37.664;2022-11-15T12:13:00;99897.38;;;1.42;53.41
35694;BME280;21812;55.536;37.664;2022-11-15T12:15:36;99892.13;;;1.42;54.24
35694;BME280;21812;55.536;37.664;2022-11-15T12:18:02;99885.06;;;1.42;54.89
35694;BME280;21812;55.536;37.664;2022-11-15T12:20:36;99889.16;;;1.35;55.91
35694;BME280;21812;55.536;37.664;2022-11-15T12:23:15;99886.78;;;1.32;56.20
35694;BME280;21812;55.536;37.664;2022-11-15T12:25:51;99879.53;;;1.24;56.45
35694;BME280;21812;55.536;37.664;2022-11-15T12:28:45;99880.41;;;1.13;57.22
35694;BME280;21812;55.536;37.664;2022-11-15T12:33:55;99846.84;;;1.06;58.17
35694;BME280;21812;55.536;37.664;2022-11-15T12:39:01;99833.41;;;0.88;59.19
35694;BME280;21812;55.536;37.664;2022-11-15T12:41:30;99865.13;;;1.07;59.82
35694;BME280;21812;55.536;37.664;2022-11-15T12:43:56;99862.81;;;1.14;58.90
35694;BME280;21812;55.536;37.664;2022-11-15T13:02:25;99823.88;;;0.75;62.34
35694;BME280;21812;55.536;37.664;2022-11-15T13:04:54;99798.88;;;0.49;63.04
35694;BME280;21812;55.536;37.664;2022-11-15T13:17:48;99799.88;;;0.36;64.42
35694;BME280;21812;55.536;37.664;2022-11-15T13:22:44;99813.00;;;0.36;65.10
35694;BME280;21812;55.536;37.664;2022-11-15T13:27:51;99783.16;;;0.15;66.41
35694;BME280;21812;55.536;37.664;2022-11-15T13:30:25;99812.91;;;0.27;67.34
35694;BME280;21812;55.536;37.664;2022-11-15T13:32:52;99814.34;;;0.08;67.73
35694;BME280;21812;55.536;37.664;2022-11-15T13:35:25;99809.09;;;-0.03;68.73
35694;BME280;21812;55.536;37.664;2022-11-15T13:37:53;99808.72;;;-0.10;69.13
35694;BME280;21812;55.536;37.664;2022-11-15T13:40:27;99806.59;;;-0.05;69.44
35694;BME280;21812;55.536;37.664;2022-11-15T13:42:56;99801.34;;;-0.05;68.76
35694;BME280;21812;55.536;37.664;2022-11-15T13:45:22;99790.25;;;-0.08;69.16
35694;BME280;21812;55.536;37.664;2022-11-15T13:47:53;99791.22;;;-0.09;69.88
35694;BME280;21812;55.536;37.664;2022-11-15T13:50:22;99761.50;;;-0.32;69.85
35694;BME280;21812;55.536;37.664;2022-11-15T13:52:49;99787.28;;;-0.15;69.85
35694;BME280;21812;55.536;37.664;2022-11-15T13:55:21;99764.47;;;-0.26;69.82
35694;BME280;21812;55.536;37.664;2022-11-15T13:57:59;99785.59;;;-0.05;70.24
35694;BME280;21812;55.536;37.664;2022-11-15T14:00:27;99781.31;;;-0.06;70.63
35694;BME280;21812;55.536;37.664;2022-11-15T14:03:23;99775.16;;;1.86;84.73
35694;BME280;21812;55.536;37.664;2022-11-15T14:08:27;99757.06;;;4.60;61.67
35694;BME280;21812;55.536;37.664;2022-11-15T14:11:18;99755.50;;;4.21;58.49
35694;BME280;21812;55.536;37.664;2022-11-15T14:16:36;99740.69;;;3.83;58.56
35694;BME280;21812;55.536;37.664;2022-11-15T14:19:03;99753.75;;;3.47;59.56
35694;BME280;21812;55.536;37.664;2022-11-15T14:21:29;99751.00;;;3.29;60.22
35694;BME280;21812;55.536;37.664;2022-11-15T14:24:19;99706.00;;;3.30;63.69
35694;BME280;21812;55.536;37.664;2022-11-15T14:26:47;99754.50;;;3.67;60.96
35694;BME280;21812;55.536;37.664;2022-11-15T14:29:29;99733.13;;;3.60;58.54
35694;BME280;21812;55.536;37.664;2022-11-15T14:32:15;99744.69;;;3.49;61.20
35694;BME280;21812;55.536;37.664;2022-11-15T14:34:41;99740.47;;;3.66;63.57
35694;BME280;21812;55.536;37.664;2022-11-15T14:37:36;99732.78;;;3.73;62.42
35694;BME280;21812;55.536;37.664;2022-11-15T14:40:04;99667.56;;;3.18;62.15
35694;BME280;21812;55.536;37.664;2022-11-15T14:42:31;99734.41;;;3.56;61.31
35694;BME280;21812;55.536;37.664;2022-11-15T14:44:56;99721.66;;;3.42;60.26
35694;BME280;21812;55.536;37.664;2022-11-15T14:47:22;99713.81;;;3.60;64.55
35694;BME280;21812;55.536;37.664;2022-11-15T14:49:48;99702.56;;;4.31;64.79
35694;BME280;21812;55.536;37.664;2022-11-15T14:52:29;99678.06;;;4.83;60.96
35694;BME280;21812;55.536;37.664;2022-11-15T14:54:55;99700.22;;;5.08;61.66
35694;BME280;21812;55.536;37.664;2022-11-15T14:57:23;99689.97;;;5.05;60.10
35694;BME280;21812;55.536;37.664;2022-11-15T14:59:49;99690.69;;;4.53;57.38
35694;BME280;21812;55.536;37.664;2022-11-15T15:02:23;99669.16;;;4.66;58.69
35694;BME280;21812;55.536;37.664;2022-11-15T15:04:49;99693.63;;;5.12;58.04
35694;BME280;21812;55.536;37.664;2022-11-15T15:07:16;99707.63;;;5.48;57.99
35694;BME280;21812;55.536;37.664;2022-11-15T15:09:43;99662.34;;;5.76;55.98
35694;BME280;21812;55.536;37.664;2022-11-15T15:12:20;99687.34;;;5.74;54.85
35694;BME280;21812;55.536;37.664;2022-11-15T15:14:47;99659.22;;;5.38;54.97
35694;BME280;21812;55.536;37.664;2022-11-15T15:17:13;99678.50;;;5.22;55.83
35694;BME280;21812;55.536;37.664;2022-11-15T15:19:39;99683.38;;;4.65;56.20
35694;BME280;21812;55.536;37.664;2022-11-15T15:22:05;99682.28;;;4.49;58.50
35694;BME280;21812;55.536;37.664;2022-11-15T15:24:31;99681.03;;;4.80;57.28
35694;BME280;21812;55.536;37.664;2022-11-15T15:26:57;99677.13;;;4.92;57.90
35694;BME280;21812;55.536;37.664;2022-11-15T15:29:23;99678.91;;;4.65;59.68
35694;BME280;21812;55.536;37.664;2022-11-15T15:31:48;99676.06;;;4.41;56.01
35694;BME280;21812;55.536;37.664;2022-11-15T15:34:14;99673.69;;;4.74;65.46
35694;BME280;21812;55.536;37.664;2022-11-15T15:36:42;99672.06;;;4.37;57.32
35694;BME280;21812;55.536;37.664;2022-11-15T15:39:10;99633.69;;;3.69;57.46
35694;BME280;21812;55.536;37.664;2022-11-15T15:41:36;99669.56;;;3.71;58.95
35694;BME280;21812;55.536;37.664;2022-11-15T15:44:02;99666.25;;;3.69;59.37
35694;BME280;21812;55.536;37.664;2022-11-15T15:46:27;99664.84;;;3.65;58.78
35694;BME280;21812;55.536;37.664;2022-11-15T15:48:53;99654.44;;;3.91;62.93
35694;BME280;21812;55.536;37.664;2022-11-15T15:51:21;99639.38;;;3.74;58.44
35694;BME280;21812;55.536;37.664;2022-11-15T15:53:47;99646.91;;;3.41;59.89
35694;BME280;21812;55.536;37.664;2022-11-15T15:56:13;99637.31;;;3.40;62.64
35694;BME280;21812;55.536;37.664;2022-11-15T15:58:39;99630.91;;;3.70;63.68